Time;durP1;ratioP1;P1;durP2;ratioP2;P2;SDS_P1;SDS_P2;PMS_P1;PMS_P2;Temp;Humidity;BMP_temperature;BMP_pressure;BME280_temperature;BME280_humidity;BME280_pressure;Samples;Min_cycle;Max_cycle;Signal;HPM_P1;HPM_P2
2022/01/26 00:07:55;;;;;;;12.00;3.67;;;22.90;36.40;;;;;;5061718;28;20570;-64
2022/01/26 00:10:21;;;;;;;8.80;3.38;;;22.80;36.50;;;;;;5062170;28;20085;-63
2022/01/26 00:12:48;;;;;;;12.27;3.38;;;22.80;37.00;;;;;;5065687;28;20100;-64
2022/01/26 00:15:14;;;;;;;17.70;3.85;;;22.70;37.30;;;;;;5063558;28;20070;-64
2022/01/26 00:17:41;;;;;;;17.60;3.17;;;22.70;37.70;;;;;;5045458;28;20073;-64
2022/01/26 00:20:22;;;;;;;6.43;3.38;;;22.70;36.20;;;;;;5059610;28;21070;-65
2022/01/26 00:28:08;;;;;;;7.88;3.35;;;22.40;36.40;;;;;;5060366;28;20163;-64
2022/01/26 00:38:50;;;;;;;13.25;4.10;;;22.00;38.20;;;;;;5062349;28;20076;-65
2022/01/26 00:41:22;;;;;;;14.02;4.03;;;21.90;38.30;;;;;;5028798;28;20077;-68
2022/01/26 00:43:55;;;;;;;14.80;4.10;;;21.80;38.70;;;;;;5043507;28;20097;-65
2022/01/26 00:46:22;;;;;;;32.22;4.78;;;21.60;39.70;;;;;;5064580;28;20101;-65
2022/01/26 00:48:51;;;;;;;20.02;4.20;;;21.50;40.20;;;;;;5059736;28;20084;-65
2022/01/26 00:51:20;;;;;;;22.45;5.40;;;21.40;41.10;;;;;;5066358;23;20116;-63
2022/01/26 00:53:54;;;;;;;28.42;4.38;;;21.30;41.50;;;;;;5077986;28;20073;-62
2022/01/26 00:56:21;;;;;;;27.27;4.45;;;21.20;42.20;;;;;;5072597;28;20535;-63
2022/01/26 00:58:47;;;;;;;22.33;3.65;;;21.10;42.80;;;;;;5069627;28;20173;-62
2022/01/26 01:01:14;;;;;;;35.92;4.60;;;20.90;42.40;;;;;;5074412;28;20065;-67
2022/01/26 01:03:44;;;;;;;43.80;7.57;;;20.70;43.80;;;;;;5072512;28;20075;-66
2022/01/26 01:06:26;;;;;;;35.47;5.38;;;20.60;44.00;;;;;;5074490;28;20527;-63
2022/01/26 01:08:55;;;;;;;40.72;7.32;;;20.40;45.10;;;;;;5079000;28;20535;-64
2022/01/26 01:11:22;;;;;;;36.10;7.68;;;20.30;45.80;;;;;;5063854;28;20101;-64
2022/01/26 01:13:49;;;;;;;54.25;9.00;;;20.10;46.20;;;;;;5058176;28;20097;-64
2022/01/26 01:16:20;;;;;;;50.15;8.65;;;20.00;47.10;;;;;;5068822;28;20601;-63
2022/01/26 01:19:07;;;;;;;32.20;8.32;;;19.80;47.00;;;;;;5056783;28;20081;-64
2022/01/26 01:34:25;;;;;;;45.47;10.90;;;19.00;49.30;;;;;;5059862;28;20065;-63
2022/01/26 01:36:53;;;;;;;43.45;9.85;;;18.80;49.70;;;;;;5060751;28;20084;-63
2022/01/26 01:39:21;;;;;;;35.65;9.98;;;18.80;50.10;;;;;;5058744;28;20097;-66
2022/01/26 01:41:50;;;;;;;70.38;26.55;;;18.60;50.50;;;;;;5053829;28;20081;-63
2022/01/26 01:44:18;;;;;;;59.35;26.55;;;18.60;51.00;;;;;;5065864;28;20076;-67
2022/01/26 01:46:44;;;;;;;67.03;29.08;;;18.40;51.30;;;;;;5056604;28;20107;-65
2022/01/26 01:49:13;;;;;;;90.35;37.38;;;18.40;51.40;;;;;;5063786;28;20124;-65
2022/01/26 01:51:45;;;;;;;62.28;22.60;;;18.30;51.80;;;;;;5064025;28;20461;-65
2022/01/26 01:54:16;;;;;;;51.88;18.58;;;18.20;51.90;;;;;;5059847;28;20129;-64
2022/01/26 01:56:48;;;;;;;52.58;14.13;;;18.10;52.00;;;;;;5062910;28;20175;-66
2022/01/26 01:59:15;;;;;;;43.55;12.88;;;18.00;52.50;;;;;;5060971;28;20080;-64
2022/01/26 02:01:41;;;;;;;64.95;15.18;;;18.00;53.00;;;;;;5052575;28;20168;-65
2022/01/26 02:04:08;;;;;;;40.65;13.20;;;17.90;52.70;;;;;;5064148;28;20092;-66
2022/01/26 02:06:35;;;;;;;38.00;12.30;;;17.90;51.80;;;;;;5061451;28;20107;-64
2022/01/26 02:09:02;;;;;;;44.55;12.48;;;17.80;51.70;;;;;;5066035;28;20108;-64
2022/01/26 02:11:29;;;;;;;45.30;12.68;;;17.70;51.10;;;;;;5058921;28;20182;-65
2022/01/26 02:14:04;;;;;;;45.50;10.65;;;17.50;50.90;;;;;;5062751;28;20088;-64
2022/01/26 02:16:48;;;;;;;40.13;10.63;;;17.50;51.40;;;;;;5049633;28;20081;-63
2022/01/26 02:19:44;;;;;;;31.92;10.00;;;17.40;51.50;;;;;;5059550;28;20438;-64
2022/01/26 02:55:05;;;;;;;59.65;16.35;;;16.70;55.30;;;;;;5054229;28;20074;-62
2022/01/26 03:00:41;;;;;;;101.25;45.80;;;16.60;55.70;;;;;;5004499;28;20102;-63
2022/01/26 03:03:21;;;;;;;112.72;46.70;;;16.50;54.90;;;;;;5037652;28;20065;-64
2022/01/26 03:06:02;;;;;;;84.38;36.20;;;16.40;55.20;;;;;;5054246;28;20134;-65
2022/01/26 03:08:34;;;;;;;90.13;32.10;;;16.40;55.40;;;;;;5063314;28;20081;-65
2022/01/26 03:11:12;;;;;;;93.68;29.45;;;16.20;55.80;;;;;;5066277;28;20093;-66
2022/01/26 03:13:48;;;;;;;73.28;28.60;;;16.30;56.20;;;;;;5055551;28;20135;-65
2022/01/26 03:16:27;;;;;;;79.55;28.65;;;16.20;56.60;;;;;;5053660;28;20139;-65
2022/01/26 03:18:59;;;;;;;80.60;30.73;;;16.10;57.00;;;;;;5051000;28;20104;-66
2022/01/26 03:21:45;;;;;;;78.75;25.23;;;16.00;57.00;;;;;;5076904;28;20707;-66
2022/01/26 03:30:05;;;;;;;76.00;18.35;;;15.90;56.30;;;;;;5054128;28;20143;-65
2022/01/26 03:35:00;;;;;;;93.82;18.38;;;15.90;56.90;;;;;;5053909;28;20089;-65
2022/01/26 03:37:34;;;;;;;65.38;17.30;;;15.90;57.20;;;;;;5076601;28;20439;-63
2022/01/26 03:40:11;;;;;;;77.85;17.05;;;15.90;57.20;;;;;;5057864;28;20072;-65
2022/01/26 03:42:41;;;;;;;63.42;16.95;;;15.80;56.90;;;;;;5063875;28;20081;-67
2022/01/26 03:45:08;;;;;;;62.67;16.80;;;15.70;56.50;;;;;;5062240;28;20091;-65
2022/01/26 03:47:35;;;;;;;73.90;17.25;;;15.80;56.50;;;;;;5056172;28;20133;-67
2022/01/26 03:50:02;;;;;;;49.15;15.82;;;15.80;56.80;;;;;;5052709;28;20073;-66
2022/01/26 03:52:30;;;;;;;51.47;15.02;;;15.80;56.50;;;;;;5053580;28;20112;-65
2022/01/26 03:54:57;;;;;;;49.83;14.85;;;15.70;55.50;;;;;;5055114;28;20100;-67
2022/01/26 03:57:23;;;;;;;;;;;15.80;55.80;;;;;;5051189;28;20075;-64
2022/01/26 03:59:49;;;;;;;54.70;13.73;;;15.80;55.90;;;;;;5060720;28;20431;-65
2022/01/26 04:02:15;;;;;;;;;;;15.70;55.40;;;;;;5066062;28;20164;-65
2022/01/26 04:04:48;;;;;;;59.95;15.35;;;15.70;55.80;;;;;;5053241;28;20527;-64
2022/01/26 04:07:14;;;;;;;56.55;19.85;;;15.70;56.10;;;;;;5053843;28;20160;-64
2022/01/26 04:09:40;;;;;;;;;;;15.60;56.20;;;;;;5067294;28;20077;-65
2022/01/26 04:12:08;;;;;;;59.20;22.08;;;15.60;56.20;;;;;;5052001;28;19984;-64
2022/01/26 04:14:35;;;;;;;59.80;15.68;;;15.50;55.80;;;;;;5056045;28;20108;-65
2022/01/26 04:17:01;;;;;;;53.78;15.52;;;15.40;55.70;;;;;;5051422;28;20485;-63
2022/01/26 04:19:31;;;;;;;65.00;16.50;;;15.40;56.40;;;;;;5064238;28;20523;-67
2022/01/26 04:22:12;;;;;;;49.95;15.77;;;15.50;56.70;;;;;;5059229;28;20100;-63
2022/01/26 04:24:44;;;;;;;46.55;14.30;;;15.40;56.70;;;;;;5062695;28;20101;-66
2022/01/26 04:27:33;;;;;;;44.13;14.20;;;15.40;57.20;;;;;;5058403;28;20130;-63
2022/01/26 04:30:00;;;;;;;39.83;13.95;;;15.40;57.70;;;;;;5058527;28;20161;-65
2022/01/26 04:32:26;;;;;;;;;;;15.30;57.80;;;;;;5052919;28;20093;-65
2022/01/26 04:34:52;;;;;;;49.10;14.52;;;15.30;58.00;;;;;;5051035;28;19957;-64
2022/01/26 04:40:21;;;;;;;53.05;14.55;;;15.20;58.80;;;;;;4987641;28;20143;-64
2022/01/26 04:42:55;;;;;;;71.82;15.60;;;15.20;58.90;;;;;;5039670;28;20082;-64
2022/01/26 04:45:21;;;;;;;58.47;14.80;;;15.20;59.20;;;;;;5069438;28;20138;-66
2022/01/26 04:47:48;;;;;;;52.60;14.98;;;15.20;59.80;;;;;;5060354;28;20073;-65
2022/01/26 04:50:15;;;;;;;51.33;14.05;;;15.20;60.30;;;;;;5055160;28;20509;-64
2022/01/26 04:52:45;;;;;;;66.70;17.83;;;15.20;60.90;;;;;;5070527;28;20151;-66
2022/01/26 04:55:12;;;;;;;50.95;15.60;;;15.10;61.10;;;;;;5066251;28;20131;-66
2022/01/26 04:57:39;;;;;;;40.05;15.65;;;15.10;60.90;;;;;;5053960;28;20076;-66
2022/01/26 05:00:08;;;;;;;59.97;16.33;;;15.00;61.10;;;;;;5060342;28;20156;-67
2022/01/26 05:02:38;;;;;;;34.30;14.98;;;15.00;60.60;;;;;;5064460;28;20138;-65
2022/01/26 05:05:05;;;;;;;41.65;13.48;;;14.90;60.30;;;;;;5060769;28;20069;-64
2022/01/26 05:07:31;;;;;;;42.75;12.73;;;14.80;59.40;;;;;;5069528;28;20077;-65
2022/01/26 05:09:57;;;;;;;;;;;14.90;59.30;;;;;;5061140;28;20073;-64
2022/01/26 05:12:24;;;;;;;34.13;11.57;;;14.80;58.20;;;;;;5056941;28;19977;-65
2022/01/26 05:14:53;;;;;;;36.08;11.68;;;14.80;56.90;;;;;;5067583;28;20497;-64
2022/01/26 05:17:22;;;;;;;31.02;11.13;;;14.70;56.80;;;;;;5066731;28;20072;-65
2022/01/26 05:19:54;;;;;;;39.65;12.57;;;14.70;56.70;;;;;;5055486;28;20076;-68
2022/01/26 05:22:20;;;;;;;36.90;11.70;;;14.70;56.90;;;;;;5053575;28;20073;-64
2022/01/26 05:24:47;;;;;;;;;;;14.80;57.70;;;;;;5056192;28;20074;-67
2022/01/26 05:27:14;;;;;;;34.08;13.35;;;14.70;57.30;;;;;;5084514;28;19961;-64
2022/01/26 05:29:43;;;;;;;47.05;13.65;;;14.70;57.70;;;;;;5064881;28;20092;-64
2022/01/26 05:32:09;;;;;;;37.83;13.25;;;14.60;57.20;;;;;;5066452;28;20092;-64
2022/01/26 05:34:36;;;;;;;;;;;14.60;57.70;;;;;;5066690;28;20077;-67
2022/01/26 05:37:02;;;;;;;43.42;13.80;;;14.50;57.80;;;;;;5067211;28;20055;-66
2022/01/26 05:39:29;;;;;;;40.72;13.45;;;14.50;58.10;;;;;;5057390;28;20081;-65
2022/01/26 05:41:56;;;;;;;38.63;13.07;;;14.60;57.90;;;;;;5052682;28;20081;-63
2022/01/26 05:44:23;;;;;;;30.02;11.77;;;14.50;57.80;;;;;;5054862;28;20073;-67
2022/01/26 05:46:50;;;;;;;;;;;14.40;57.20;;;;;;5057000;28;20069;-65
2022/01/26 05:49:18;;;;;;;33.10;11.18;;;14.30;56.10;;;;;;5065944;28;20006;-65
2022/01/26 05:51:47;;;;;;;24.60;10.23;;;14.30;55.60;;;;;;5057534;28;20105;-66
2022/01/26 05:54:15;;;;;;;29.10;8.80;;;14.30;54.90;;;;;;5052612;28;20111;-63
2022/01/26 05:56:47;;;;;;;26.98;8.30;;;14.30;53.50;;;;;;5054865;28;20591;-65
2022/01/26 05:59:20;;;;;;;26.80;8.38;;;14.20;52.50;;;;;;5067563;28;20069;-66
2022/01/26 06:01:48;;;;;;;21.15;7.40;;;14.20;52.30;;;;;;5056324;28;20084;-65
2022/01/26 06:04:15;;;;;;;22.10;7.10;;;14.20;52.00;;;;;;5068452;28;20073;-65
2022/01/26 06:06:41;;;;;;;19.25;7.50;;;14.20;51.50;;;;;;5055265;28;20569;-64
2022/01/26 06:09:08;;;;;;;35.88;8.57;;;14.20;50.60;;;;;;5055470;28;20074;-63
2022/01/26 06:11:34;;;;;;;29.88;9.13;;;14.20;50.00;;;;;;5054225;28;20663;-66
2022/01/26 06:14:01;;;;;;;26.63;8.30;;;14.20;48.90;;;;;;5048466;28;20430;-64
2022/01/26 06:16:27;;;;;;;;;;;14.20;48.20;;;;;;5058804;28;20077;-64
2022/01/26 06:18:53;;;;;;;34.05;6.93;;;14.20;47.40;;;;;;5067981;28;19963;-64
2022/01/26 06:21:20;;;;;;;23.92;5.80;;;14.10;46.80;;;;;;5064298;28;20089;-65
2022/01/26 06:23:46;;;;;;;;;;;14.10;45.10;;;;;;5064553;28;20117;-66
2022/01/26 06:26:13;;;;;;;20.35;5.60;;;13.90;44.30;;;;;;5059877;28;19961;-64
2022/01/26 06:28:39;;;;;;;;;;;13.90;43.30;;;;;;5059562;28;20105;-64
2022/01/26 06:31:10;;;;;;;30.00;7.53;;;14.00;42.00;;;;;;5066727;28;19983;-65
2022/01/26 06:33:40;;;;;;;37.40;7.45;;;13.90;42.40;;;;;;5066168;28;20076;-65
2022/01/26 06:36:08;;;;;;;34.65;6.45;;;13.90;42.30;;;;;;5056753;28;20078;-63
2022/01/26 06:38:35;;;;;;;35.53;6.65;;;13.90;42.40;;;;;;5060472;28;20112;-65
2022/01/26 06:41:02;;;;;;;43.80;7.50;;;13.90;42.50;;;;;;5055123;28;20100;-66
2022/01/26 06:43:31;;;;;;;45.17;6.25;;;13.80;43.10;;;;;;5055040;28;20077;-64
2022/01/26 06:46:07;;;;;;;38.08;6.28;;;13.80;42.80;;;;;;5054527;28;20148;-63
2022/01/26 06:51:00;;;;;;;;;;;13.80;43.50;;;;;;5058905;28;20121;-66
2022/01/26 06:53:28;;;;;;;40.47;5.38;;;13.70;43.70;;;;;;5062148;28;19968;-64
2022/01/26 06:55:54;;;;;;;36.25;5.18;;;13.60;43.70;;;;;;5061221;28;20081;-65
2022/01/26 06:58:21;;;;;;;27.15;5.15;;;13.50;44.00;;;;;;5060843;28;20129;-65
2022/01/26 07:00:47;;;;;;;26.70;4.97;;;13.40;43.20;;;;;;5062446;28;20101;-63
2022/01/26 07:03:13;;;;;;;;;;;13.30;43.70;;;;;;5060157;28;21081;-66
2022/01/26 07:05:40;;;;;;;28.40;5.60;;;13.30;44.10;;;;;;5060933;28;19964;-66
2022/01/26 07:08:07;;;;;;;27.58;4.95;;;13.20;44.40;;;;;;5061191;28;20085;-66
2022/01/26 07:10:34;;;;;;;33.97;5.30;;;13.20;45.00;;;;;;5062249;28;20180;-65
2022/01/26 07:13:02;;;;;;;;;;;13.20;45.60;;;;;;5061240;28;20801;-66
2022/01/26 07:23:49;;;;;;;29.73;5.13;;;12.80;46.10;;;;;;5062907;28;20080;-64
2022/01/26 07:26:15;;;;;;;23.42;5.63;;;12.70;46.10;;;;;;5061783;28;20084;-66
2022/01/26 07:28:42;;;;;;;28.70;5.60;;;12.70;46.00;;;;;;5060102;28;20559;-65
2022/01/26 07:31:10;;;;;;;34.80;5.28;;;12.70;46.20;;;;;;5061145;28;20093;-64
2022/01/26 07:33:38;;;;;;;25.13;4.47;;;12.60;46.30;;;;;;5057958;28;20482;-65
2022/01/26 07:36:06;;;;;;;35.78;4.80;;;12.60;45.30;;;;;;5060823;28;20072;-63
2022/01/26 07:38:32;;;;;;;21.08;4.50;;;12.60;45.60;;;;;;5061871;28;20550;-64
2022/01/26 07:40:59;;;;;;;27.55;3.55;;;12.70;44.90;;;;;;5060253;28;20093;-64
2022/01/26 07:43:25;;;;;;;;;;;12.70;44.10;;;;;;5062844;28;20089;-64
2022/01/26 07:45:52;;;;;;;21.20;3.30;;;12.70;44.20;;;;;;5062408;28;20008;-64
2022/01/26 07:48:18;;;;;;;16.45;2.65;;;12.80;43.70;;;;;;5061011;28;20077;-65
2022/01/26 07:50:45;;;;;;;15.68;2.58;;;12.80;42.40;;;;;;5058333;28;20089;-65
2022/01/26 07:53:16;;;;;;;19.40;2.67;;;12.80;40.20;;;;;;5057641;28;20069;-67
2022/01/26 07:55:43;;;;;;;12.45;2.38;;;12.90;39.10;;;;;;5060408;28;20073;-64
2022/01/26 07:58:09;;;;;;;13.45;2.40;;;12.90;38.10;;;;;;5060006;28;20175;-64
2022/01/26 08:00:37;;;;;;;12.02;1.80;;;13.00;37.70;;;;;;5060994;28;20112;-64
2022/01/26 08:03:04;;;;;;;13.80;1.52;;;13.10;37.80;;;;;;5059821;28;20101;-64
2022/01/26 08:05:30;;;;;;;9.68;2.20;;;13.10;36.60;;;;;;5061728;28;20074;-64
2022/01/26 08:07:57;;;;;;;11.65;1.60;;;13.10;37.00;;;;;;5062144;28;20097;-64
2022/01/26 08:10:23;;;;;;;;;;;13.20;37.70;;;;;;5060334;28;20135;-64
2022/01/26 08:12:49;;;;;;;6.18;1.20;;;13.20;37.40;;;;;;5057996;28;20034;-65
2022/01/26 08:15:16;;;;;;;;;;;13.20;37.30;;;;;;5062868;28;20066;-66
2022/01/26 08:17:42;;;;;;;10.82;1.50;;;13.20;37.80;;;;;;5058895;28;19957;-65
2022/01/26 08:20:10;;;;;;;6.97;1.08;;;13.10;37.50;;;;;;5058787;28;20688;-64
2022/01/26 08:22:37;;;;;;;14.40;1.83;;;13.10;36.40;;;;;;5057925;28;20439;-63
2022/01/26 08:25:04;;;;;;;13.68;1.80;;;13.10;36.40;;;;;;5059849;28;20160;-66
2022/01/26 08:27:38;;;;;;;14.07;1.98;;;13.10;36.60;;;;;;5061881;28;20076;-64
2022/01/26 08:30:12;;;;;;;15.80;1.77;;;13.00;37.20;;;;;;5062725;28;20073;-63
2022/01/26 08:32:39;;;;;;;6.07;2.35;;;13.00;36.90;;;;;;5059141;28;20112;-64
2022/01/26 08:35:06;;;;;;;15.18;2.00;;;13.00;36.60;;;;;;5062737;28;20281;-64
2022/01/26 08:37:32;;;;;;;7.07;1.85;;;12.90;36.90;;;;;;5044701;28;20387;-64
2022/01/26 08:39:59;;;;;;;14.45;1.70;;;12.90;36.90;;;;;;5060662;28;20080;-64
2022/01/26 08:42:25;;;;;;;;;;;12.90;37.60;;;;;;5064860;28;20607;-66
2022/01/26 08:44:52;;;;;;;7.97;2.10;;;12.90;38.10;;;;;;5059690;28;20063;-64
2022/01/26 08:47:19;;;;;;;8.93;1.60;;;12.90;39.10;;;;;;5043981;28;20228;-66
2022/01/26 08:49:45;;;;;;;8.35;1.77;;;12.80;39.60;;;;;;5063168;28;20495;-62
2022/01/26 08:52:12;;;;;;;;;;;12.70;39.50;;;;;;5062362;28;20204;-63
2022/01/26 08:54:38;;;;;;;11.43;2.13;;;12.60;39.60;;;;;;5057200;28;20122;-62
2022/01/26 08:57:05;;;;;;;12.95;2.55;;;12.50;40.10;;;;;;5059236;28;20073;-66
2022/01/26 08:59:31;;;;;;;19.92;3.67;;;12.50;40.30;;;;;;5060704;28;20525;-69
2022/01/26 09:01:57;;;;;;;23.33;4.13;;;12.30;40.60;;;;;;5061671;28;20069;-63
2022/01/26 09:04:23;;;;;;;;;;;12.30;41.00;;;;;;5057968;28;20111;-65
2022/01/26 09:06:52;;;;;;;22.67;5.82;;;12.30;41.30;;;;;;5058815;28;19957;-63
2022/01/26 09:09:21;;;;;;;55.47;15.82;;;12.30;41.70;;;;;;5056654;28;20422;-63
2022/01/26 09:11:50;;;;;;;47.17;18.15;;;12.20;43.60;;;;;;5058154;28;20108;-64
2022/01/26 09:14:20;;;;;;;82.15;24.50;;;12.20;45.60;;;;;;5061458;28;20488;-63
2022/01/26 09:16:50;;;;;;;83.10;26.45;;;12.20;47.40;;;;;;5056761;28;20542;-64
2022/01/26 09:19:27;;;;;;;91.30;29.35;;;12.20;48.50;;;;;;5061517;28;20442;-62
2022/01/26 09:21:55;;;;;;;88.22;31.33;;;12.10;49.00;;;;;;5060620;28;20072;-63
2022/01/26 09:24:22;;;;;;;126.95;34.38;;;12.10;50.10;;;;;;5057287;28;20081;-62
2022/01/26 09:26:48;;;;;;;108.32;33.80;;;12.10;50.70;;;;;;5061785;28;20172;-64
2022/01/26 09:29:14;;;;;;;;;;;12.00;51.00;;;;;;5066866;28;20088;-64
2022/01/26 09:31:42;;;;;;;126.10;38.10;;;12.00;51.60;;;;;;5065284;28;19987;-64
2022/01/26 09:34:08;;;;;;;137.25;40.72;;;11.90;52.20;;;;;;5064194;28;20158;-64
2022/01/26 09:36:34;;;;;;;;;;;11.90;52.80;;;;;;5062561;28;20076;-63
2022/01/26 09:39:01;;;;;;;119.68;37.63;;;12.00;53.10;;;;;;5060310;28;20384;-64
2022/01/26 09:41:27;;;;;;;;;;;12.00;53.40;;;;;;5064539;28;20115;-64
2022/01/26 09:43:54;;;;;;;124.60;36.35;;;11.90;53.20;;;;;;5060598;28;19964;-64
2022/01/26 09:46:20;;;;;;;112.68;35.95;;;11.90;53.40;;;;;;5062969;28;20077;-63
2022/01/26 09:48:47;;;;;;;121.63;37.00;;;11.80;53.70;;;;;;5062073;28;20534;-63
2022/01/26 09:51:16;;;;;;;120.63;35.67;;;11.70;53.30;;;;;;5062592;28;20112;-64
2022/01/26 09:53:43;;;;;;;112.50;34.83;;;11.60;53.40;;;;;;5060597;28;20075;-61
2022/01/26 09:56:09;;;;;;;;;;;11.70;53.90;;;;;;5061458;28;20089;-63
2022/01/26 09:58:36;;;;;;;139.70;42.60;;;11.60;53.00;;;;;;5062027;28;20385;-62
2022/01/26 10:01:04;;;;;;;120.03;42.90;;;11.60;53.40;;;;;;5061910;28;20088;-64
2022/01/26 10:03:33;;;;;;;145.60;43.08;;;11.60;53.70;;;;;;5043731;28;20073;-63
2022/01/26 10:06:01;;;;;;;127.78;43.63;;;11.50;52.90;;;;;;5062495;28;20127;-63
2022/01/26 10:19:05;;;;;;;109.80;38.45;;;11.30;52.80;;;;;;5064301;28;20070;-63
2022/01/26 10:21:31;;;;;;;116.07;41.92;;;11.30;53.00;;;;;;5061083;28;20527;-63
2022/01/26 10:24:11;;;;;;;127.97;42.58;;;11.30;52.90;;;;;;5060029;28;20168;-64
2022/01/26 10:26:37;;;;;;;104.32;39.28;;;11.30;53.20;;;;;;5046617;28;20168;-64
2022/01/26 10:29:05;;;;;;;123.68;38.10;;;11.30;53.10;;;;;;5061585;28;20154;-65
2022/01/26 10:31:39;;;;;;;98.85;38.25;;;11.20;52.90;;;;;;5064001;28;20101;-64
2022/01/26 10:34:20;;;;;;;119.38;39.38;;;11.20;52.90;;;;;;5061010;28;20104;-63
2022/01/26 10:36:50;;;;;;;103.55;36.60;;;11.10;53.10;;;;;;5043483;28;20073;-64
2022/01/26 10:39:24;;;;;;;99.60;37.38;;;11.10;52.80;;;;;;5044021;28;20677;-64
2022/01/26 10:41:54;;;;;;;97.80;34.80;;;11.10;52.20;;;;;;5042911;28;20519;-64
2022/01/26 10:44:41;;;;;;;102.70;34.80;;;11.00;52.20;;;;;;5030258;28;20543;-65
2022/01/26 10:47:09;;;;;;;116.05;36.42;;;11.00;52.80;;;;;;5061469;28;20069;-64
2022/01/26 10:52:22;;;;;;;100.68;35.05;;;11.00;52.90;;;;;;5060674;28;20159;-64
2022/01/26 10:54:50;;;;;;;105.13;33.60;;;11.00;53.10;;;;;;5063676;28;20079;-64
2022/01/26 10:57:17;;;;;;;93.88;35.55;;;10.90;52.80;;;;;;5059555;28;20073;-63
2022/01/26 10:59:46;;;;;;;82.13;32.20;;;10.80;53.10;;;;;;5060723;28;20535;-65
2022/01/26 11:02:19;;;;;;;80.68;33.17;;;10.90;53.00;;;;;;5061151;28;20077;-64
2022/01/26 11:04:45;;;;;;;94.95;33.92;;;10.80;53.80;;;;;;5059188;28;20163;-64
2022/01/26 11:07:12;;;;;;;;;;;11.00;53.60;;;;;;5079231;28;20100;-65
2022/01/26 11:09:41;;;;;;;98.60;33.25;;;10.90;53.60;;;;;;5061939;28;20001;-63
2022/01/26 11:12:10;;;;;;;94.07;32.20;;;10.80;53.90;;;;;;5062491;28;20154;-63
2022/01/26 11:14:49;;;;;;;82.50;31.08;;;10.80;53.90;;;;;;5059925;28;20088;-64
2022/01/26 11:17:36;;;;;;;82.47;30.80;;;10.70;53.90;;;;;;5059349;28;20077;-63
2022/01/26 11:20:17;;;;;;;89.25;31.27;;;10.70;53.80;;;;;;5058091;28;20076;-63
2022/01/26 11:23:04;;;;;;;81.72;31.15;;;10.60;53.80;;;;;;5058898;28;20541;-62
2022/01/26 11:25:49;;;;;;;88.75;29.40;;;10.60;54.30;;;;;;5059150;28;20078;-62
2022/01/26 11:28:25;;;;;;;74.20;31.20;;;10.50;54.50;;;;;;5061858;28;20100;-63
2022/01/26 11:30:53;;;;;;;83.82;30.77;;;10.60;55.00;;;;;;5059784;28;20587;-63
2022/01/26 11:33:24;;;;;;;82.93;27.90;;;10.70;55.20;;;;;;5062257;28;20081;-63
2022/01/26 11:35:53;;;;;;;82.90;29.00;;;10.70;54.80;;;;;;5061099;28;20073;-65
2022/01/26 11:46:52;;;;;;;78.15;27.05;;;10.50;54.70;;;;;;5059363;28;20359;-64
2022/01/26 11:49:25;;;;;;;66.20;27.08;;;10.50;54.70;;;;;;5058951;28;20084;-64
2022/01/26 11:51:55;;;;;;;77.90;27.20;;;10.50;54.10;;;;;;5058596;28;20243;-63
2022/01/26 11:54:26;;;;;;;71.80;27.35;;;10.40;54.10;;;;;;5059549;28;20068;-63
2022/01/26 11:57:09;;;;;;;59.80;25.20;;;10.30;54.20;;;;;;5044545;28;20122;-65
2022/01/26 11:59:43;;;;;;;66.75;27.60;;;10.30;54.60;;;;;;5060770;28;20069;-63
2022/01/26 12:02:37;;;;;;;75.63;25.60;;;10.30;54.80;;;;;;5032942;28;20073;-64
2022/01/26 12:05:09;;;;;;;75.35;27.52;;;10.30;54.70;;;;;;5057239;28;20605;-64
2022/01/26 12:07:50;;;;;;;69.18;26.77;;;10.20;54.60;;;;;;5055626;28;20506;-64
2022/01/26 12:10:29;;;;;;;81.07;27.33;;;10.20;54.60;;;;;;5057195;28;20100;-64
2022/01/26 12:13:03;;;;;;;73.30;26.55;;;10.20;54.60;;;;;;5060493;28;20097;-64
2022/01/26 12:15:38;;;;;;;85.78;27.45;;;10.20;55.30;;;;;;5050856;28;20073;-63
2022/01/26 12:45:34;;;;;;;38.10;15.38;;;10.30;53.90;;;;;;5063549;28;20142;-64
2022/01/26 12:48:01;;;;;;;32.42;13.30;;;10.20;52.30;;;;;;5060008;28;20146;-64
2022/01/26 12:50:28;;;;;;;28.58;12.02;;;10.20;51.20;;;;;;5059144;28;20522;-64
2022/01/26 12:52:57;;;;;;;27.42;11.48;;;10.20;51.00;;;;;;5058670;28;20123;-64
2022/01/26 12:55:29;;;;;;;22.30;10.65;;;10.20;50.40;;;;;;5041008;28;20069;-65
2022/01/26 12:57:56;;;;;;;19.08;9.13;;;10.20;50.20;;;;;;5056997;28;20135;-66
2022/01/26 13:00:25;;;;;;;26.15;9.55;;;10.30;49.80;;;;;;5059628;28;20434;-64
2022/01/26 13:02:54;;;;;;;21.70;8.32;;;10.10;49.20;;;;;;5045494;28;20073;-65
2022/01/26 13:05:26;;;;;;;24.23;8.73;;;10.10;49.60;;;;;;5064627;28;20081;-64
2022/01/26 13:08:00;;;;;;;22.17;8.98;;;10.10;49.70;;;;;;5062836;28;20115;-64
2022/01/26 13:10:28;;;;;;;17.77;8.65;;;10.10;49.80;;;;;;5069448;28;20142;-64
2022/01/26 13:13:22;;;;;;;26.15;8.30;;;10.10;49.60;;;;;;5066598;28;20077;-63
2022/01/26 13:16:06;;;;;;;21.48;8.27;;;10.00;49.00;;;;;;5066172;28;20100;-66
2022/01/26 13:22:04;;;;;;;25.55;8.60;;;10.10;50.10;;;;;;5029148;28;20090;-64
2022/01/26 13:24:49;;;;;;;27.95;8.20;;;10.10;50.20;;;;;;5025101;28;20085;-63
2022/01/26 13:40:27;;;;;;;22.08;7.63;;;9.80;52.00;;;;;;5028445;28;20171;-66
2022/01/26 13:43:36;;;;;;;18.67;6.60;;;9.70;51.70;;;;;;5028066;28;20078;-63
2022/01/26 13:54:45;;;;;;;14.55;6.45;;;9.70;51.50;;;;;;5027990;28;20556;-63
2022/01/26 13:59:20;;;;;;;18.75;6.68;;;9.60;51.60;;;;;;5061954;28;20637;-64
2022/01/26 14:01:48;;;;;;;17.13;6.68;;;9.50;52.00;;;;;;5063765;28;20203;-64
2022/01/26 14:04:16;;;;;;;21.20;6.53;;;9.50;52.70;;;;;;5049023;28;20159;-64
2022/01/26 14:06:43;;;;;;;16.33;7.30;;;9.40;52.60;;;;;;5065449;28;20061;-67
2022/01/26 14:09:10;;;;;;;19.83;6.82;;;9.30;52.40;;;;;;5060043;28;20099;-65
2022/01/26 14:11:36;;;;;;;;;;;9.30;51.60;;;;;;5060320;28;20096;-63
2022/01/26 14:14:03;;;;;;;14.43;6.40;;;9.30;52.20;;;;;;5063429;28;20437;-64
2022/01/26 14:16:37;;;;;;;20.10;6.93;;;9.40;52.60;;;;;;5062081;28;20133;-63
2022/01/26 14:19:25;;;;;;;25.88;7.38;;;9.40;53.00;;;;;;5058619;28;20080;-63
2022/01/26 14:24:29;;;;;;;18.35;6.75;;;9.40;53.20;;;;;;5063986;28;20139;-64
2022/01/26 14:26:59;;;;;;;16.33;6.15;;;9.40;53.00;;;;;;5064850;28;20077;-64
2022/01/26 14:29:37;;;;;;;17.95;5.80;;;9.40;53.00;;;;;;5060731;28;20489;-63
2022/01/26 14:32:17;;;;;;;25.65;7.25;;;9.40;53.50;;;;;;5059751;28;20089;-64
2022/01/26 15:34:58;;;;;;;62.00;15.77;;;9.60;54.80;;;;;;5061920;28;20075;-63
2022/01/26 15:43:00;;;;;;;49.17;12.10;;;9.80;52.90;;;;;;5060229;28;20405;-64
2022/01/26 15:59:03;;;;;;;48.00;13.07;;;10.60;52.20;;;;;;5062378;28;20104;-62
2022/01/26 16:05:00;;;;;;;39.47;9.95;;;11.00;50.10;;;;;;5064600;28;20096;-63
2022/01/26 16:52:29;;;;;;;16.70;3.65;;;16.90;31.60;;;;;;5056194;28;20084;-65
2022/01/26 17:26:34;;;;;;;12.20;3.20;;;23.60;24.30;;;;;;5058644;28;20476;-65
2022/01/26 18:04:00;;;;;;;12.65;3.00;;;28.80;18.90;;;;;;5055716;28;20662;-66
2022/01/26 18:15:17;;;;;;;6.53;1.05;;;29.70;17.60;;;;;;5056216;28;20152;-65
2022/01/26 18:49:40;;;;;;;4.00;1.27;;;30.40;16.40;;;;;;5055051;28;20068;-63
2022/01/26 18:52:08;;;;;;;7.85;1.10;;;30.10;16.80;;;;;;5054057;28;20113;-65
2022/01/26 18:54:37;;;;;;;7.47;1.13;;;31.00;16.70;;;;;;5058326;28;20109;-64
2022/01/26 18:57:09;;;;;;;2.28;1.13;;;31.60;16.10;;;;;;5056349;28;20063;-64
2022/01/26 18:59:37;;;;;;;3.28;1.13;;;32.20;16.20;;;;;;5051974;28;20149;-64
2022/01/26 19:02:07;;;;;;;7.22;1.05;;;32.50;16.20;;;;;;5084348;28;20117;-62
2022/01/26 19:04:40;;;;;;;11.63;1.30;;;31.70;17.00;;;;;;5079350;28;20057;-68
2022/01/26 19:07:07;;;;;;;2.83;0.90;;;31.90;16.70;;;;;;5055548;28;20065;-64
2022/01/26 19:09:39;;;;;;;2.70;0.88;;;31.30;16.50;;;;;;5066348;28;20518;-66
2022/01/26 19:12:09;;;;;;;3.67;0.82;;;31.00;16.40;;;;;;5053834;28;20554;-64
2022/01/26 19:14:39;;;;;;;4.53;0.80;;;29.90;16.80;;;;;;5043519;28;20099;-64
2022/01/26 19:17:20;;;;;;;5.30;0.88;;;28.40;17.80;;;;;;5055067;28;20119;-63
2022/01/26 19:20:41;;;;;;;4.20;0.85;;;27.50;18.00;;;;;;5054101;28;20518;-65
2022/01/26 19:25:13;;;;;;;6.25;0.80;;;26.50;18.70;;;;;;5053923;28;20069;-66
2022/01/26 19:27:49;;;;;;;2.60;0.50;;;26.30;19.00;;;;;;5054812;28;20061;-65
2022/01/26 19:46:04;;;;;;;3.72;0.60;;;23.50;21.50;;;;;;5062217;28;20076;-63
2022/01/26 19:51:16;;;;;;;2.40;0.80;;;23.10;22.00;;;;;;5053221;28;20111;-64
2022/01/26 19:53:42;;;;;;;0.95;0.60;;;23.10;22.40;;;;;;5049025;28;20069;-64
2022/01/26 19:56:09;;;;;;;2.72;0.88;;;23.30;21.90;;;;;;5053495;28;20073;-62
2022/01/26 19:58:35;;;;;;;2.88;0.57;;;23.60;22.80;;;;;;5047433;28;21638;-68
2022/01/26 20:01:03;;;;;;;8.45;0.77;;;23.40;21.50;;;;;;5054788;28;20073;-65